Главная страница
METAR-TAF:

METAR-TAF

Аэропорты :

Butler, Пенсильвания, США

широта: 40-47N, долгота: 079-57W, высота над уровнем моря: 380 м

Текущие метеонаблюдения

Эта сводка был подготовлена 1 час и 3 минут назад, в 14:56 UTC
Ветер 5 Узел от западный
Температура -1°C
Влажность 80%
Давление 1026 hPa
Видимость: 16.1 км
Рассеянная облачность на высоте 1500 фута

METAR: KBTP 151456Z AUTO 28005KT 10SM BKN015 M01/M04 A3029 RMK AO2 SLP276 T10111039 50005 FZRANO

Время: 10:59 (15:59 UTC)


TAF: отсутствует

Метеонаблюдения и прогнозы для более 4000 аэропортов (сводки METAR и TAF).

Имеющиеся станции представлены на карте желтыми и красными точками.

Чтобы увидеть название станции, наведите на нее мышь.

Затем щелкните, чтобы увидеть метеонаблюдения и метеопрогнозы.

Управление картой: чтобы увеличить масштаб, щелкните зеленые кнопки с черным крестиком; чтобы уменьшить масштаб, щелкните зеленую кнопку с тире; для просмотра соседних карт щелкайте зеленые стрелки.


METAR-TAF: